sensor_id;sensor_type;location;lat;lon;timestamp;P1;durP1;ratioP1;P2;durP2;ratioP2
21800;SDS011;11062;51.164;16.924;2022-12-07T00:01:38;236.02;;;81.18;;
21800;SDS011;11062;51.164;16.924;2022-12-07T00:04:26;292.27;;;90.95;;
21800;SDS011;11062;51.164;16.924;2022-12-07T00:10:50;245.25;;;81.47;;
21800;SDS011;11062;51.164;16.924;2022-12-07T00:13:19;241.30;;;81.00;;
21800;SDS011;11062;51.164;16.924;2022-12-07T00:15:45;235.35;;;79.85;;
21800;SDS011;11062;51.164;16.924;2022-12-07T00:18:11;264.77;;;85.45;;
21800;SDS011;11062;51.164;16.924;2022-12-07T00:20:38;236.23;;;78.13;;
21800;SDS011;11062;51.164;16.924;2022-12-07T00:23:06;241.15;;;81.85;;
21800;SDS011;11062;51.164;16.924;2022-12-07T00:25:32;236.75;;;82.40;;
21800;SDS011;11062;51.164;16.924;2022-12-07T00:27:59;237.98;;;81.70;;
21800;SDS011;11062;51.164;16.924;2022-12-07T00:30:25;253.45;;;82.57;;
21800;SDS011;11062;51.164;16.924;2022-12-07T00:32:51;244.25;;;82.72;;
21800;SDS011;11062;51.164;16.924;2022-12-07T00:35:17;241.55;;;81.70;;
21800;SDS011;11062;51.164;16.924;2022-12-07T00:37:43;235.60;;;77.85;;
21800;SDS011;11062;51.164;16.924;2022-12-07T00:40:10;241.57;;;80.03;;
21800;SDS011;11062;51.164;16.924;2022-12-07T00:42:36;252.95;;;84.20;;
21800;SDS011;11062;51.164;16.924;2022-12-07T00:45:03;239.05;;;80.07;;
21800;SDS011;11062;51.164;16.924;2022-12-07T00:47:29;246.98;;;82.50;;
21800;SDS011;11062;51.164;16.924;2022-12-07T00:49:55;246.88;;;83.10;;
21800;SDS011;11062;51.164;16.924;2022-12-07T00:52:21;235.63;;;80.70;;
21800;SDS011;11062;51.164;16.924;2022-12-07T00:54:48;252.70;;;83.57;;
21800;SDS011;11062;51.164;16.924;2022-12-07T00:57:14;236.75;;;80.80;;
21800;SDS011;11062;51.164;16.924;2022-12-07T00:59:40;242.32;;;81.97;;
21800;SDS011;11062;51.164;16.924;2022-12-07T01:02:06;239.82;;;81.13;;
21800;SDS011;11062;51.164;16.924;2022-12-07T01:04:33;236.63;;;81.07;;
21800;SDS011;11062;51.164;16.924;2022-12-07T01:06:59;255.73;;;84.30;;
21800;SDS011;11062;51.164;16.924;2022-12-07T01:09:25;239.98;;;81.25;;
21800;SDS011;11062;51.164;16.924;2022-12-07T01:11:52;244.52;;;83.00;;
21800;SDS011;11062;51.164;16.924;2022-12-07T01:14:18;243.13;;;82.63;;
21800;SDS011;11062;51.164;16.924;2022-12-07T01:16:44;237.90;;;83.90;;
21800;SDS011;11062;51.164;16.924;2022-12-07T01:19:10;261.35;;;82.25;;
21800;SDS011;11062;51.164;16.924;2022-12-07T01:21:39;241.38;;;81.78;;
21800;SDS011;11062;51.164;16.924;2022-12-07T01:24:06;243.57;;;80.20;;
21800;SDS011;11062;51.164;16.924;2022-12-07T01:26:35;233.73;;;79.53;;
21800;SDS011;11062;51.164;16.924;2022-12-07T01:29:01;245.70;;;80.53;;
21800;SDS011;11062;51.164;16.924;2022-12-07T01:31:29;250.55;;;79.63;;
21800;SDS011;11062;51.164;16.924;2022-12-07T01:33:56;232.15;;;78.07;;
21800;SDS011;11062;51.164;16.924;2022-12-07T01:36:24;240.38;;;79.68;;
21800;SDS011;11062;51.164;16.924;2022-12-07T01:38:57;237.70;;;79.75;;
21800;SDS011;11062;51.164;16.924;2022-12-07T01:41:27;241.98;;;80.18;;
21800;SDS011;11062;51.164;16.924;2022-12-07T01:46:50;239.20;;;79.90;;
21800;SDS011;11062;51.164;16.924;2022-12-07T01:49:40;233.27;;;78.50;;
21800;SDS011;11062;51.164;16.924;2022-12-07T01:54:35;234.32;;;76.97;;
21800;SDS011;11062;51.164;16.924;2022-12-07T01:57:02;242.35;;;79.68;;
21800;SDS011;11062;51.164;16.924;2022-12-07T01:59:29;227.25;;;76.93;;
21800;SDS011;11062;51.164;16.924;2022-12-07T02:01:56;257.80;;;81.35;;
21800;SDS011;11062;51.164;16.924;2022-12-07T02:04:22;233.02;;;78.40;;
21800;SDS011;11062;51.164;16.924;2022-12-07T02:06:49;241.23;;;78.35;;
21800;SDS011;11062;51.164;16.924;2022-12-07T02:09:16;235.20;;;78.95;;
21800;SDS011;11062;51.164;16.924;2022-12-07T02:11:43;230.20;;;77.20;;
21800;SDS011;11062;51.164;16.924;2022-12-07T02:14:09;256.08;;;82.55;;
21800;SDS011;11062;51.164;16.924;2022-12-07T02:16:42;231.82;;;76.50;;
21800;SDS011;11062;51.164;16.924;2022-12-07T02:21:56;235.30;;;77.88;;
21800;SDS011;11062;51.164;16.924;2022-12-07T02:24:55;240.98;;;77.53;;
21800;SDS011;11062;51.164;16.924;2022-12-07T02:30:11;230.10;;;77.32;;
21800;SDS011;11062;51.164;16.924;2022-12-07T02:32:43;234.80;;;79.07;;
21800;SDS011;11062;51.164;16.924;2022-12-07T02:35:15;237.00;;;77.97;;
21800;SDS011;11062;51.164;16.924;2022-12-07T02:37:47;233.65;;;77.90;;
21800;SDS011;11062;51.164;16.924;2022-12-07T02:42:47;239.65;;;80.40;;
21800;SDS011;11062;51.164;16.924;2022-12-07T02:45:18;240.60;;;79.90;;
21800;SDS011;11062;51.164;16.924;2022-12-07T02:47:48;240.30;;;78.72;;
21800;SDS011;11062;51.164;16.924;2022-12-07T02:50:21;247.75;;;80.25;;
21800;SDS011;11062;51.164;16.924;2022-12-07T02:52:47;234.57;;;78.10;;
21800;SDS011;11062;51.164;16.924;2022-12-07T02:55:14;230.38;;;77.68;;
21800;SDS011;11062;51.164;16.924;2022-12-07T02:57:51;231.45;;;76.72;;
21800;SDS011;11062;51.164;16.924;2022-12-07T03:00:34;244.40;;;78.47;;
21800;SDS011;11062;51.164;16.924;2022-12-07T03:03:23;236.40;;;78.15;;
21800;SDS011;11062;51.164;16.924;2022-12-07T03:05:57;237.52;;;78.28;;
21800;SDS011;11062;51.164;16.924;2022-12-07T03:08:35;235.63;;;76.78;;
21800;SDS011;11062;51.164;16.924;2022-12-07T03:11:09;229.30;;;77.05;;
21800;SDS011;11062;51.164;16.924;2022-12-07T03:13:50;235.85;;;76.22;;
21800;SDS011;11062;51.164;16.924;2022-12-07T03:16:46;226.18;;;74.45;;
21800;SDS011;11062;51.164;16.924;2022-12-07T03:19:30;231.40;;;76.20;;
21800;SDS011;11062;51.164;16.924;2022-12-07T03:22:02;224.25;;;74.32;;
21800;SDS011;11062;51.164;16.924;2022-12-07T03:24:41;226.02;;;75.60;;
21800;SDS011;11062;51.164;16.924;2022-12-07T03:28:18;223.10;;;74.30;;
21800;SDS011;11062;51.164;16.924;2022-12-07T03:30:22;228.05;;;74.78;;
21800;SDS011;11062;51.164;16.924;2022-12-07T03:33:01;238.73;;;78.20;;
21800;SDS011;11062;51.164;16.924;2022-12-07T03:38:08;232.82;;;77.30;;
21800;SDS011;11062;51.164;16.924;2022-12-07T03:40:48;236.57;;;76.78;;
21800;SDS011;11062;51.164;16.924;2022-12-07T03:43:20;234.45;;;77.65;;
21800;SDS011;11062;51.164;16.924;2022-12-07T03:45:54;226.45;;;76.65;;
21800;SDS011;11062;51.164;16.924;2022-12-07T03:48:36;233.88;;;77.45;;
21800;SDS011;11062;51.164;16.924;2022-12-07T03:51:09;255.23;;;82.13;;
21800;SDS011;11062;51.164;16.924;2022-12-07T03:53:44;233.38;;;76.60;;
21800;SDS011;11062;51.164;16.924;2022-12-07T03:56:16;236.77;;;78.53;;
21800;SDS011;11062;51.164;16.924;2022-12-07T03:58:46;232.50;;;78.53;;
21800;SDS011;11062;51.164;16.924;2022-12-07T04:01:13;245.48;;;78.18;;
21800;SDS011;11062;51.164;16.924;2022-12-07T04:03:39;239.75;;;78.38;;
21800;SDS011;11062;51.164;16.924;2022-12-07T04:06:06;240.60;;;78.97;;
21800;SDS011;11062;51.164;16.924;2022-12-07T04:08:35;229.68;;;75.53;;
21800;SDS011;11062;51.164;16.924;2022-12-07T04:11:01;239.13;;;78.65;;
21800;SDS011;11062;51.164;16.924;2022-12-07T04:13:30;247.85;;;78.60;;
21800;SDS011;11062;51.164;16.924;2022-12-07T04:16:19;230.48;;;76.35;;
21800;SDS011;11062;51.164;16.924;2022-12-07T04:18:45;227.20;;;76.97;;
21800;SDS011;11062;51.164;16.924;2022-12-07T04:21:12;226.82;;;76.45;;
21800;SDS011;11062;51.164;16.924;2022-12-07T04:23:38;257.15;;;79.47;;
21800;SDS011;11062;51.164;16.924;2022-12-07T04:26:04;227.65;;;75.18;;
21800;SDS011;11062;51.164;16.924;2022-12-07T04:28:33;232.93;;;76.63;;
21800;SDS011;11062;51.164;16.924;2022-12-07T04:31:02;221.27;;;74.25;;
21800;SDS011;11062;51.164;16.924;2022-12-07T04:33:34;237.05;;;75.60;;
21800;SDS011;11062;51.164;16.924;2022-12-07T04:36:06;236.10;;;77.03;;
21800;SDS011;11062;51.164;16.924;2022-12-07T04:38:32;233.70;;;77.47;;
21800;SDS011;11062;51.164;16.924;2022-12-07T04:40:58;227.75;;;74.63;;
21800;SDS011;11062;51.164;16.924;2022-12-07T04:43:33;231.80;;;76.57;;
21800;SDS011;11062;51.164;16.924;2022-12-07T04:46:02;249.25;;;79.63;;
21800;SDS011;11062;51.164;16.924;2022-12-07T04:48:28;230.10;;;76.18;;
21800;SDS011;11062;51.164;16.924;2022-12-07T04:50:54;231.77;;;76.47;;
21800;SDS011;11062;51.164;16.924;2022-12-07T04:53:24;231.85;;;76.10;;
21800;SDS011;11062;51.164;16.924;2022-12-07T04:55:52;229.30;;;76.45;;
21800;SDS011;11062;51.164;16.924;2022-12-07T04:58:19;227.82;;;75.13;;
21800;SDS011;11062;51.164;16.924;2022-12-07T05:00:45;225.40;;;75.85;;
21800;SDS011;11062;51.164;16.924;2022-12-07T05:03:11;237.02;;;76.18;;
21800;SDS011;11062;51.164;16.924;2022-12-07T05:05:39;238.45;;;78.07;;
21800;SDS011;11062;51.164;16.924;2022-12-07T05:08:08;257.13;;;80.05;;
21800;SDS011;11062;51.164;16.924;2022-12-07T05:10:34;228.65;;;76.35;;
21800;SDS011;11062;51.164;16.924;2022-12-07T05:13:00;241.27;;;78.75;;
21800;SDS011;11062;51.164;16.924;2022-12-07T05:15:27;239.88;;;77.45;;
21800;SDS011;11062;51.164;16.924;2022-12-07T05:17:53;235.73;;;77.15;;
21800;SDS011;11062;51.164;16.924;2022-12-07T05:20:22;249.57;;;79.28;;
21800;SDS011;11062;51.164;16.924;2022-12-07T05:22:48;233.90;;;77.80;;
21800;SDS011;11062;51.164;16.924;2022-12-07T05:25:15;232.07;;;76.18;;
21800;SDS011;11062;51.164;16.924;2022-12-07T05:27:43;255.05;;;77.97;;
21800;SDS011;11062;51.164;16.924;2022-12-07T05:30:12;232.43;;;77.88;;
21800;SDS011;11062;51.164;16.924;2022-12-07T05:32:38;247.25;;;79.90;;
21800;SDS011;11062;51.164;16.924;2022-12-07T05:35:05;235.77;;;79.20;;
21800;SDS011;11062;51.164;16.924;2022-12-07T05:37:31;245.57;;;80.68;;
21800;SDS011;11062;51.164;16.924;2022-12-07T05:40:00;234.10;;;78.13;;
21800;SDS011;11062;51.164;16.924;2022-12-07T05:42:27;225.80;;;77.38;;
21800;SDS011;11062;51.164;16.924;2022-12-07T05:44:53;252.57;;;82.68;;
21800;SDS011;11062;51.164;16.924;2022-12-07T05:47:22;239.00;;;81.18;;
21800;SDS011;11062;51.164;16.924;2022-12-07T05:49:48;240.80;;;82.35;;
21800;SDS011;11062;51.164;16.924;2022-12-07T05:52:15;236.32;;;81.72;;
21800;SDS011;11062;51.164;16.924;2022-12-07T05:54:41;236.30;;;79.70;;
21800;SDS011;11062;51.164;16.924;2022-12-07T05:57:07;244.40;;;82.68;;
21800;SDS011;11062;51.164;16.924;2022-12-07T05:59:33;239.70;;;81.60;;
21800;SDS011;11062;51.164;16.924;2022-12-07T06:02:03;251.55;;;83.85;;
21800;SDS011;11062;51.164;16.924;2022-12-07T06:04:37;241.10;;;83.70;;
21800;SDS011;11062;51.164;16.924;2022-12-07T06:07:05;233.88;;;81.38;;
21800;SDS011;11062;51.164;16.924;2022-12-07T06:09:32;241.65;;;82.30;;
21800;SDS011;11062;51.164;16.924;2022-12-07T06:11:59;235.90;;;82.22;;
21800;SDS011;11062;51.164;16.924;2022-12-07T06:14:44;249.70;;;84.15;;
21800;SDS011;11062;51.164;16.924;2022-12-07T06:17:11;253.93;;;85.95;;
21800;SDS011;11062;51.164;16.924;2022-12-07T06:19:41;253.00;;;86.65;;
21800;SDS011;11062;51.164;16.924;2022-12-07T06:22:10;247.52;;;83.10;;
21800;SDS011;11062;51.164;16.924;2022-12-07T06:24:36;268.60;;;85.82;;
21800;SDS011;11062;51.164;16.924;2022-12-07T06:27:03;247.35;;;83.57;;
21800;SDS011;11062;51.164;16.924;2022-12-07T06:29:29;242.25;;;80.95;;
21800;SDS011;11062;51.164;16.924;2022-12-07T06:31:56;245.68;;;83.20;;
21800;SDS011;11062;51.164;16.924;2022-12-07T06:34:25;244.50;;;83.32;;
21800;SDS011;11062;51.164;16.924;2022-12-07T06:36:52;244.15;;;83.43;;
21800;SDS011;11062;51.164;16.924;2022-12-07T06:39:26;250.68;;;85.45;;
21800;SDS011;11062;51.164;16.924;2022-12-07T06:41:54;243.00;;;84.20;;
21800;SDS011;11062;51.164;16.924;2022-12-07T06:44:20;246.75;;;85.07;;
21800;SDS011;11062;51.164;16.924;2022-12-07T06:46:50;243.18;;;83.07;;
21800;SDS011;11062;51.164;16.924;2022-12-07T06:49:19;241.95;;;83.95;;
21800;SDS011;11062;51.164;16.924;2022-12-07T06:51:45;242.27;;;82.22;;
21800;SDS011;11062;51.164;16.924;2022-12-07T06:54:12;244.63;;;83.70;;
21800;SDS011;11062;51.164;16.924;2022-12-07T06:56:43;239.18;;;82.97;;
21800;SDS011;11062;51.164;16.924;2022-12-07T06:59:09;236.90;;;83.22;;
21800;SDS011;11062;51.164;16.924;2022-12-07T07:01:35;236.23;;;82.85;;
21800;SDS011;11062;51.164;16.924;2022-12-07T07:04:02;250.73;;;84.38;;
21800;SDS011;11062;51.164;16.924;2022-12-07T07:06:28;250.45;;;84.32;;
21800;SDS011;11062;51.164;16.924;2022-12-07T07:08:54;247.68;;;84.93;;
21800;SDS011;11062;51.164;16.924;2022-12-07T07:11:20;251.52;;;84.93;;
21800;SDS011;11062;51.164;16.924;2022-12-07T07:13:47;245.82;;;83.97;;
21800;SDS011;11062;51.164;16.924;2022-12-07T07:16:13;255.35;;;86.25;;
21800;SDS011;11062;51.164;16.924;2022-12-07T07:18:39;239.63;;;83.25;;
21800;SDS011;11062;51.164;16.924;2022-12-07T07:21:06;246.30;;;84.78;;
21800;SDS011;11062;51.164;16.924;2022-12-07T07:23:32;258.40;;;84.15;;
21800;SDS011;11062;51.164;16.924;2022-12-07T07:25:58;246.63;;;83.47;;
21800;SDS011;11062;51.164;16.924;2022-12-07T07:28:27;254.35;;;82.57;;
21800;SDS011;11062;51.164;16.924;2022-12-07T07:30:55;243.65;;;82.50;;
21800;SDS011;11062;51.164;16.924;2022-12-07T07:33:24;251.32;;;83.35;;
21800;SDS011;11062;51.164;16.924;2022-12-07T07:35:50;256.38;;;84.50;;
21800;SDS011;11062;51.164;16.924;2022-12-07T07:38:17;236.43;;;81.78;;
21800;SDS011;11062;51.164;16.924;2022-12-07T07:40:43;245.05;;;82.82;;
21800;SDS011;11062;51.164;16.924;2022-12-07T07:43:09;241.50;;;81.88;;
21800;SDS011;11062;51.164;16.924;2022-12-07T07:45:35;244.48;;;82.43;;
21800;SDS011;11062;51.164;16.924;2022-12-07T07:48:02;264.20;;;87.20;;
21800;SDS011;11062;51.164;16.924;2022-12-07T07:50:28;244.55;;;83.07;;
21800;SDS011;11062;51.164;16.924;2022-12-07T07:52:54;251.52;;;83.90;;
21800;SDS011;11062;51.164;16.924;2022-12-07T07:55:25;251.13;;;84.10;;
21800;SDS011;11062;51.164;16.924;2022-12-07T07:57:51;250.82;;;84.28;;
21800;SDS011;11062;51.164;16.924;2022-12-07T08:00:20;254.30;;;83.90;;
21800;SDS011;11062;51.164;16.924;2022-12-07T08:02:46;245.85;;;84.43;;
21800;SDS011;11062;51.164;16.924;2022-12-07T08:05:13;258.88;;;87.75;;
21800;SDS011;11062;51.164;16.924;2022-12-07T08:07:39;245.93;;;84.60;;
21800;SDS011;11062;51.164;16.924;2022-12-07T08:10:09;257.13;;;86.85;;
21800;SDS011;11062;51.164;16.924;2022-12-07T08:12:40;255.05;;;84.97;;
21800;SDS011;11062;51.164;16.924;2022-12-07T08:15:27;250.45;;;84.60;;
21800;SDS011;11062;51.164;16.924;2022-12-07T08:17:57;255.77;;;84.57;;
21800;SDS011;11062;51.164;16.924;2022-12-07T08:20:29;254.77;;;89.07;;
21800;SDS011;11062;51.164;16.924;2022-12-07T08:22:56;247.48;;;86.93;;
21800;SDS011;11062;51.164;16.924;2022-12-07T08:25:26;252.98;;;86.43;;
21800;SDS011;11062;51.164;16.924;2022-12-07T08:27:52;259.48;;;85.43;;
21800;SDS011;11062;51.164;16.924;2022-12-07T08:30:20;267.00;;;86.25;;
21800;SDS011;11062;51.164;16.924;2022-12-07T08:32:47;253.82;;;84.35;;
21800;SDS011;11062;51.164;16.924;2022-12-07T08:35:17;252.05;;;84.07;;
21800;SDS011;11062;51.164;16.924;2022-12-07T08:37:43;241.63;;;82.40;;
21800;SDS011;11062;51.164;16.924;2022-12-07T08:40:10;248.43;;;84.28;;
21800;SDS011;11062;51.164;16.924;2022-12-07T08:42:41;255.20;;;86.18;;
21800;SDS011;11062;51.164;16.924;2022-12-07T08:45:11;259.70;;;85.45;;
21800;SDS011;11062;51.164;16.924;2022-12-07T08:48:11;248.43;;;84.35;;
21800;SDS011;11062;51.164;16.924;2022-12-07T08:50:40;262.15;;;85.50;;
21800;SDS011;11062;51.164;16.924;2022-12-07T08:53:06;256.67;;;86.53;;
21800;SDS011;11062;51.164;16.924;2022-12-07T08:55:33;270.20;;;88.20;;
21800;SDS011;11062;51.164;16.924;2022-12-07T08:57:59;253.35;;;84.22;;
21800;SDS011;11062;51.164;16.924;2022-12-07T09:00:27;259.58;;;87.07;;
21800;SDS011;11062;51.164;16.924;2022-12-07T09:02:53;252.13;;;84.68;;
21800;SDS011;11062;51.164;16.924;2022-12-07T09:05:25;257.40;;;86.72;;
21800;SDS011;11062;51.164;16.924;2022-12-07T09:07:56;250.63;;;85.13;;
21800;SDS011;11062;51.164;16.924;2022-12-07T09:10:28;245.93;;;83.65;;
21800;SDS011;11062;51.164;16.924;2022-12-07T21:18:36;406.23;;;93.10;;
21800;SDS011;11062;51.164;16.924;2022-12-07T21:21:11;245.68;;;81.05;;
